createdAt,value
2022-11-28T00:01:21.698Z,95006.31
2022-11-28T00:03:48.408Z,94998.88
2022-11-28T00:06:15.705Z,95004.19
2022-11-28T00:08:42.813Z,95000.59
2022-11-28T00:11:11.478Z,94999.84
2022-11-28T00:13:38.651Z,94989.22
2022-11-28T00:16:06.999Z,94975.66
2022-11-28T00:18:33.708Z,94970.28
2022-11-28T00:21:06.286Z,94955.13
2022-11-28T00:23:33.502Z,94955.06
2022-11-28T00:26:06.294Z,94953.72
2022-11-28T00:28:33.114Z,94961.66
2022-11-28T00:30:59.739Z,94959.38
2022-11-28T00:33:26.315Z,94954.53
2022-11-28T00:36:02.426Z,94959.06
2022-11-28T00:38:29.663Z,94957.41
2022-11-28T00:41:07.725Z,94967.00
2022-11-28T00:43:34.575Z,94958.41
2022-11-28T00:46:01.740Z,94959.22
2022-11-28T00:48:28.445Z,94961.28
2022-11-28T00:50:56.103Z,94958.81
2022-11-28T00:53:22.706Z,94956.38
2022-11-28T00:55:49.365Z,94949.78
2022-11-28T00:58:15.959Z,94950.44
2022-11-28T01:00:42.724Z,94952.38
2022-11-28T01:03:09.423Z,94953.03
2022-11-28T01:05:41.169Z,94942.25
2022-11-28T01:08:07.979Z,94938.25
2022-11-28T01:10:34.554Z,94938.75
2022-11-28T01:13:01.184Z,94924.28
2022-11-28T01:15:27.890Z,94925.84
2022-11-28T01:17:54.487Z,94925.84
2022-11-28T01:20:21.075Z,94930.00
2022-11-28T01:22:47.767Z,94935.66
2022-11-28T01:25:14.303Z,94929.50
2022-11-28T01:27:40.869Z,94945.25
2022-11-28T01:30:08.087Z,94932.31
2022-11-28T01:32:34.709Z,94937.38
2022-11-28T01:35:01.241Z,94923.75
2022-11-28T01:37:30.107Z,94925.94
2022-11-28T01:39:56.704Z,94940.41
2022-11-28T01:42:23.562Z,94949.81
2022-11-28T01:44:50.101Z,94956.16
2022-11-28T01:47:21.501Z,94955.47
2022-11-28T01:49:50.060Z,94959.56
2022-11-28T01:52:18.925Z,94954.16
2022-11-28T01:54:50.599Z,94940.81
2022-11-28T01:57:20.277Z,94938.22
2022-11-28T01:59:56.571Z,94924.34
2022-11-28T02:02:40.375Z,94932.84
2022-11-28T02:05:07.679Z,94922.53
2022-11-28T02:07:35.932Z,94914.72
2022-11-28T02:10:05.900Z,94914.91
2022-11-28T02:13:07.919Z,94912.03
2022-11-28T02:15:55.727Z,94906.97
2022-11-28T02:18:40.581Z,94905.25
2022-11-28T02:21:26.280Z,94905.50
2022-11-28T02:24:17.048Z,94906.25
2022-11-28T02:27:25.891Z,94882.78
2022-11-28T02:29:58.102Z,94888.13
2022-11-28T02:32:43.312Z,94883.88
2022-11-28T02:35:15.869Z,94880.25
2022-11-28T02:38:04.150Z,94885.56
2022-11-28T02:41:08.885Z,94893.47
2022-11-28T02:43:50.297Z,94902.34
2022-11-28T02:46:19.011Z,94878.59
2022-11-28T02:48:55.303Z,94878.34
2022-11-28T02:51:28.919Z,94881.44
2022-11-28T02:53:56.859Z,94877.19
2022-11-28T02:56:25.350Z,94865.84
2022-11-28T02:58:52.471Z,94864.59
2022-11-28T03:01:24.506Z,94864.41
2022-11-28T03:04:18.536Z,94864.59
2022-11-28T03:06:53.511Z,94851.72
2022-11-28T03:09:43.234Z,94849.38
2022-11-28T03:12:45.992Z,94855.81
2022-11-28T03:15:17.787Z,94854.25
2022-11-28T03:17:44.281Z,94848.47
2022-11-28T03:20:20.075Z,94841.06
2022-11-28T03:22:52.595Z,94832.34
2022-11-28T03:25:40.695Z,94839.06
2022-11-28T03:28:24.873Z,94842.88
2022-11-28T03:31:02.756Z,94836.34
2022-11-28T03:33:34.658Z,94823.31
2022-11-28T03:36:07.023Z,94835.50
2022-11-28T03:38:42.372Z,94829.09
2022-11-28T03:41:17.035Z,94816.41
2022-11-28T03:43:49.655Z,94800.13
2022-11-28T03:46:20.344Z,94813.72
2022-11-28T03:48:51.127Z,94826.00
2022-11-28T03:51:32.912Z,94803.19
2022-11-28T03:54:10.381Z,94813.63
2022-11-28T03:57:00.084Z,94805.38
2022-11-28T03:59:34.580Z,94801.38
2022-11-28T04:02:25.070Z,94783.47
2022-11-28T04:04:57.487Z,94767.97
2022-11-28T04:07:27.045Z,94772.75
2022-11-28T04:10:08.881Z,94776.59
2022-11-28T04:13:00.475Z,94768.97
2022-11-28T04:15:30.985Z,94776.13
2022-11-28T04:18:12.353Z,94772.13
2022-11-28T04:20:44.542Z,94785.53
2022-11-28T04:23:15.119Z,94779.94
2022-11-28T04:25:48.026Z,94793.97
2022-11-28T04:28:20.288Z,94813.06
2022-11-28T04:30:50.497Z,94822.03
2022-11-28T04:33:21.641Z,94809.09
2022-11-28T04:35:52.061Z,94811.53
2022-11-28T04:38:20.986Z,94812.69
2022-11-28T04:41:00.433Z,94795.47
2022-11-28T04:43:32.221Z,94807.59
2022-11-28T04:46:03.198Z,94801.16
2022-11-28T04:48:34.273Z,94851.63
2022-11-28T04:51:22.937Z,94812.16
2022-11-28T04:54:22.844Z,94833.28
2022-11-28T04:56:59.867Z,94838.91
2022-11-28T04:59:28.496Z,94836.00
2022-11-28T05:01:58.312Z,94856.84
2022-11-28T05:04:25.130Z,94854.81
2022-11-28T05:07:02.295Z,94845.06
2022-11-28T05:09:28.905Z,94840.78
2022-11-28T05:11:55.459Z,94841.72
2022-11-28T05:14:22.223Z,94840.31
2022-11-28T05:16:49.467Z,94851.03
2022-11-28T05:19:16.286Z,94837.78
2022-11-28T05:21:43.053Z,94847.78
2022-11-28T05:24:09.692Z,94827.56
2022-11-28T05:26:38.156Z,94833.66
2022-11-28T05:29:05.804Z,94823.97
2022-11-28T05:31:32.562Z,94820.34
2022-11-28T05:33:59.285Z,94817.91
2022-11-28T05:36:25.828Z,94816.44
2022-11-28T05:38:52.372Z,94805.69
2022-11-28T05:41:22.102Z,94799.44
2022-11-28T05:43:49.220Z,94798.72
2022-11-28T05:46:15.983Z,94798.91
2022-11-28T05:48:42.624Z,94788.75
2022-11-28T05:51:09.227Z,94792.84
2022-11-28T05:53:36.325Z,94783.22
2022-11-28T05:56:14.597Z,94779.94
2022-11-28T05:58:41.208Z,94775.06
2022-11-28T06:01:12.456Z,94766.38
2022-11-28T06:03:39.405Z,94762.19
2022-11-28T06:06:11.330Z,94753.75
2022-11-28T06:08:37.900Z,94765.25
2022-11-28T06:11:04.713Z,94761.53
2022-11-28T06:13:31.356Z,94779.00
2022-11-28T06:15:57.956Z,94783.75
2022-11-28T06:18:24.524Z,94774.06
2022-11-28T06:20:51.089Z,94770.81
2022-11-28T06:23:17.803Z,94769.63
2022-11-28T06:25:44.502Z,94772.06
2022-11-28T06:28:11.055Z,94765.91
2022-11-28T06:30:37.713Z,94776.69
2022-11-28T06:33:04.363Z,94776.56
2022-11-28T06:35:30.922Z,94783.84
2022-11-28T06:37:57.493Z,94773.69
2022-11-28T06:40:24.065Z,94783.00
2022-11-28T06:42:51.143Z,94769.56
2022-11-28T06:45:18.946Z,94775.75
2022-11-28T06:47:45.528Z,94780.72
2022-11-28T06:50:12.388Z,94786.53
2022-11-28T06:52:38.974Z,94784.81
2022-11-28T06:55:05.853Z,94794.72
2022-11-28T06:57:32.848Z,94803.22
2022-11-28T06:59:59.405Z,94805.44
2022-11-28T07:02:27.544Z,94796.66
2022-11-28T07:04:54.195Z,94798.69
2022-11-28T07:07:20.822Z,94801.94
2022-11-28T07:09:47.437Z,94794.13
2022-11-28T07:12:14.340Z,94787.44
2022-11-28T07:14:40.880Z,94787.13
2022-11-28T07:17:07.489Z,94786.94
2022-11-28T07:19:34.387Z,94785.50
2022-11-28T07:22:01.045Z,94781.03
2022-11-28T07:24:27.635Z,94760.53
2022-11-28T07:26:54.214Z,94756.78
2022-11-28T07:29:20.788Z,94753.41
2022-11-28T07:31:47.466Z,94745.78
2022-11-28T07:34:14.243Z,94753.03
2022-11-28T07:36:40.799Z,94758.00
2022-11-28T07:39:08.799Z,94753.63
2022-11-28T07:41:35.678Z,94763.97
2022-11-28T07:44:03.921Z,94767.06
2022-11-28T07:46:31.946Z,94758.31
2022-11-28T07:48:58.653Z,94761.75
2022-11-28T07:51:28.197Z,94766.75
2022-11-28T07:53:55.637Z,94764.22
2022-11-28T07:56:24.888Z,94769.31
2022-11-28T07:58:51.726Z,94766.03
2022-11-28T08:01:21.268Z,94769.81
2022-11-28T08:03:48.666Z,94771.22
2022-11-28T08:06:17.372Z,94771.00
2022-11-28T08:11:40.025Z,94754.13
2022-11-28T08:14:06.751Z,94750.59
2022-11-28T08:16:33.578Z,94751.50
2022-11-28T08:19:01.459Z,94753.03
2022-11-28T08:21:31.323Z,94749.47
2022-11-28T08:24:02.719Z,94753.31
2022-11-28T08:26:31.333Z,94754.16
2022-11-28T08:28:59.626Z,94756.91
2022-11-28T08:31:35.921Z,94751.22
2022-11-28T08:34:05.674Z,94755.66
2022-11-28T08:36:32.587Z,94751.78
2022-11-28T08:39:22.868Z,94751.06
2022-11-28T08:41:47.713Z,94745.69
2022-11-28T08:44:14.250Z,94752.81
2022-11-28T08:46:41.071Z,94755.16
2022-11-28T08:49:07.732Z,94759.72
2022-11-28T08:51:34.382Z,94759.31
2022-11-28T08:54:00.942Z,94762.03
2022-11-28T08:56:27.911Z,94764.19
2022-11-28T08:58:54.976Z,94766.09
2022-11-28T09:01:24.399Z,94759.06
2022-11-28T09:03:52.073Z,94763.31
2022-11-28T09:06:20.516Z,94762.59
2022-11-28T09:08:48.352Z,94762.88
2022-11-28T09:11:17.371Z,94762.78
2022-11-28T09:13:44.665Z,94766.63
2022-11-28T09:16:11.687Z,94762.94
2022-11-28T09:18:38.366Z,94771.53
2022-11-28T09:21:09.847Z,94767.28
2022-11-28T09:23:37.487Z,94776.59
2022-11-28T09:26:21.365Z,94772.50
2022-11-28T09:28:48.691Z,94778.34
2022-11-28T09:31:17.564Z,94770.16
2022-11-28T09:33:45.164Z,94772.59
2022-11-28T09:36:14.639Z,94773.66
2022-11-28T09:38:41.613Z,94767.28
2022-11-28T09:41:31.800Z,94772.38
2022-11-28T09:44:06.850Z,94768.94
2022-11-28T09:46:37.344Z,94772.25
2022-11-28T09:49:35.286Z,94767.69
2022-11-28T09:52:21.296Z,94769.19
2022-11-28T09:54:55.030Z,94768.63
2022-11-28T09:57:37.483Z,94773.78
2022-11-28T10:00:06.315Z,94770.59
2022-11-28T10:02:49.349Z,94765.41
2022-11-28T10:05:19.028Z,94771.91
2022-11-28T10:08:12.424Z,94776.97
2022-11-28T10:10:44.066Z,94778.13
2022-11-28T10:13:20.531Z,94789.28
2022-11-28T10:16:17.605Z,94792.56
2022-11-28T10:18:44.263Z,94782.25
2022-11-28T10:21:23.036Z,94784.13
2022-11-28T10:23:52.221Z,94770.09
2022-11-28T10:26:36.010Z,94773.47
2022-11-28T10:29:13.727Z,94770.00
2022-11-28T10:31:44.660Z,94768.72
2022-11-28T10:34:19.695Z,94767.69
2022-11-28T10:37:00.886Z,94768.84
2022-11-28T10:39:27.796Z,94764.56
2022-11-28T10:42:15.281Z,94758.75
2022-11-28T10:44:59.949Z,94759.63
2022-11-28T10:47:35.377Z,94760.00
2022-11-28T10:50:16.505Z,94763.13
2022-11-28T10:52:51.447Z,94757.97
2022-11-28T10:55:34.346Z,94763.56
2022-11-28T10:58:00.855Z,94747.75
2022-11-28T11:00:27.451Z,94753.31
2022-11-28T11:02:56.371Z,94760.84
2022-11-28T11:05:30.537Z,94760.13
2022-11-28T11:08:26.210Z,94749.81
2022-11-28T11:11:17.529Z,94755.09
2022-11-28T11:14:08.526Z,94758.34
2022-11-28T11:16:56.892Z,94756.00
2022-11-28T11:19:36.220Z,94751.88
2022-11-28T11:22:05.581Z,94747.47
2022-11-28T11:24:32.295Z,94753.41
2022-11-28T11:27:30.241Z,94744.41
2022-11-28T11:30:01.616Z,94745.72
2022-11-28T11:32:31.131Z,94746.84
2022-11-28T11:34:59.521Z,94745.59
2022-11-28T11:37:51.205Z,94747.66
2022-11-28T11:40:29.085Z,94739.50
2022-11-28T11:43:00.531Z,94739.44
2022-11-28T11:45:34.785Z,94740.13
2022-11-28T11:48:02.515Z,94737.81
2022-11-28T11:50:33.061Z,94737.31
2022-11-28T11:53:14.973Z,94735.97
2022-11-28T11:55:49.492Z,94738.50
2022-11-28T11:58:26.414Z,94734.31
2022-11-28T12:00:56.447Z,94740.13
2022-11-28T12:03:39.408Z,94734.94
2022-11-28T12:06:32.543Z,94734.13
2022-11-28T12:09:26.613Z,94737.97
2022-11-28T12:11:59.437Z,94740.00
2022-11-28T12:14:27.926Z,94734.38
2022-11-28T12:17:19.529Z,94728.72
2022-11-28T12:20:18.775Z,94731.69
2022-11-28T12:22:58.348Z,94735.91
2022-11-28T12:25:31.323Z,94734.25
2022-11-28T12:28:58.730Z,94733.22
2022-11-28T12:32:02.660Z,94732.53
2022-11-28T12:34:39.155Z,94732.78
2022-11-28T12:38:09.161Z,94726.91
2022-11-28T12:40:50.009Z,94722.59
2022-11-28T12:43:52.151Z,94721.28
2022-11-28T12:46:36.723Z,94723.22
2022-11-28T12:49:29.031Z,94720.56
2022-11-28T12:52:17.256Z,94714.81
2022-11-28T12:55:17.346Z,94723.59
2022-11-28T12:57:53.248Z,94722.69
2022-11-28T13:00:22.623Z,94718.56
2022-11-28T13:03:11.361Z,94708.75
2022-11-28T13:05:51.531Z,94716.00
2022-11-28T13:08:53.654Z,94711.63
2022-11-28T13:11:23.117Z,94712.84
2022-11-28T13:13:56.365Z,94712.59
2022-11-28T13:16:30.117Z,94707.09
2022-11-28T13:19:00.267Z,94707.91
2022-11-28T13:21:47.056Z,94706.84
2022-11-28T13:24:13.585Z,94704.00
2022-11-28T13:26:46.392Z,94706.88
2022-11-28T13:29:31.580Z,94702.66
2022-11-28T13:32:04.361Z,94700.13
2022-11-28T13:34:31.816Z,94694.06
2022-11-28T13:40:38.528Z,94699.28
2022-11-28T13:43:11.028Z,94699.44
2022-11-28T13:45:42.722Z,94700.78
2022-11-28T13:51:33.260Z,94689.72
2022-11-28T13:54:19.165Z,94695.13
2022-11-28T13:56:48.613Z,94686.91
2022-11-28T13:59:22.476Z,94697.28
2022-11-28T14:01:57.423Z,94686.47
2022-11-28T14:04:25.013Z,94689.28
2022-11-28T14:06:59.080Z,94684.13
2022-11-28T14:09:35.718Z,94689.53
2022-11-28T14:12:21.408Z,94690.81
2022-11-28T14:15:00.228Z,94695.03
2022-11-28T14:18:14.254Z,94695.16
2022-11-28T14:20:58.989Z,94690.28
2022-11-28T14:23:50.501Z,94691.22
2022-11-28T14:26:33.447Z,94693.91
2022-11-28T14:29:01.138Z,94695.78
2022-11-28T14:31:35.265Z,94695.13
2022-11-28T14:34:57.091Z,94692.94
2022-11-28T14:37:28.505Z,94692.38
2022-11-28T14:39:57.352Z,94695.44
2022-11-28T14:45:43.647Z,94698.41
2022-11-28T14:48:23.238Z,94705.25
2022-11-28T14:50:57.572Z,94698.13
2022-11-28T14:53:34.365Z,94703.88
2022-11-28T14:56:11.544Z,94703.47
2022-11-28T14:58:38.736Z,94708.25
2022-11-28T15:01:13.120Z,94710.25
2022-11-28T15:03:59.193Z,94705.38
2022-11-28T15:06:36.880Z,94709.16
2022-11-28T15:09:09.902Z,94703.34
2022-11-28T15:11:58.857Z,94707.09
2022-11-28T15:14:28.773Z,94711.38
2022-11-28T15:17:00.452Z,94697.22
2022-11-28T15:19:39.000Z,94699.09
2022-11-28T15:22:05.829Z,94693.28
2022-11-28T15:24:35.639Z,94690.84
2022-11-28T15:27:08.857Z,94697.84
2022-11-28T15:29:36.892Z,94694.59
2022-11-28T15:32:05.026Z,94690.44
2022-11-28T15:34:33.503Z,94699.00
2022-11-28T15:37:03.624Z,94700.09
2022-11-28T15:39:40.289Z,94699.13
2022-11-28T15:42:22.572Z,94697.63
2022-11-28T15:44:57.353Z,94700.44
2022-11-28T15:47:25.521Z,94698.16
2022-11-28T15:50:13.595Z,94698.25
2022-11-28T15:52:40.655Z,94695.81
2022-11-28T15:55:16.774Z,94694.44
2022-11-28T15:57:43.444Z,94692.03
2022-11-28T16:00:17.783Z,94698.88
2022-11-28T16:02:45.604Z,94697.13
2022-11-28T16:05:20.868Z,94697.25
2022-11-28T16:07:50.233Z,94697.38
2022-11-28T16:10:23.974Z,94704.09
2022-11-28T16:13:00.614Z,94695.88
2022-11-28T16:15:28.422Z,94687.53
2022-11-28T16:17:55.979Z,94691.69
2022-11-28T16:20:26.658Z,94694.75
2022-11-28T16:22:59.586Z,94696.84
2022-11-28T16:25:27.258Z,94696.41
2022-11-28T16:27:56.443Z,94687.78
2022-11-28T16:30:23.103Z,94694.78
2022-11-28T16:32:55.351Z,94693.28
2022-11-28T16:35:38.844Z,94692.81
2022-11-28T16:38:25.323Z,94696.69
2022-11-28T16:41:00.601Z,94688.09
2022-11-28T16:43:35.815Z,94686.72
2022-11-28T16:46:06.681Z,94694.50
2022-11-28T16:48:38.656Z,94688.69
2022-11-28T16:51:11.016Z,94692.84
2022-11-28T16:53:59.522Z,94690.31
2022-11-28T16:56:29.312Z,94692.84
2022-11-28T16:59:07.922Z,94692.72
2022-11-28T17:01:35.862Z,94693.56
2022-11-28T17:04:02.870Z,94688.66
2022-11-28T17:06:36.871Z,94690.88
2022-11-28T17:09:08.791Z,94693.81
2022-11-28T17:11:38.658Z,94684.19
2022-11-28T17:14:10.103Z,94683.72
2022-11-28T17:16:41.373Z,94682.47
2022-11-28T17:19:08.448Z,94680.16
2022-11-28T17:21:45.093Z,94680.16
2022-11-28T17:24:21.116Z,94684.44
2022-11-28T17:26:48.850Z,94678.41
2022-11-28T17:29:16.480Z,94678.28
2022-11-28T17:31:46.689Z,94682.00
2022-11-28T17:34:25.165Z,94692.22
2022-11-28T17:36:52.391Z,94692.81
2022-11-28T17:39:20.541Z,94688.63
2022-11-28T17:41:48.061Z,94684.22
2022-11-28T17:44:18.688Z,94689.09
2022-11-28T17:46:45.866Z,94686.78
2022-11-28T17:49:13.150Z,94689.81
2022-11-28T17:51:40.008Z,94690.28
2022-11-28T17:54:07.608Z,94693.53
2022-11-28T17:56:34.273Z,94696.06
2022-11-28T17:59:01.034Z,94692.69
2022-11-28T18:01:30.936Z,94699.44
2022-11-28T18:03:58.962Z,94697.59
2022-11-28T18:06:25.669Z,94697.22
2022-11-28T18:08:53.105Z,94705.13
2022-11-28T18:11:20.078Z,94698.25
2022-11-28T18:13:48.447Z,94694.22
2022-11-28T18:16:18.235Z,94696.63
2022-11-28T18:18:45.692Z,94700.13
2022-11-28T18:21:13.670Z,94696.38
2022-11-28T18:23:41.694Z,94695.91
2022-11-28T18:26:12.841Z,94695.00
2022-11-28T18:28:40.115Z,94690.81
2022-11-28T18:31:16.879Z,94695.69
2022-11-28T18:33:44.004Z,94697.44
2022-11-28T18:36:17.597Z,94694.44
2022-11-28T18:38:47.071Z,94693.06
2022-11-28T18:41:16.694Z,94700.72
2022-11-28T18:43:44.068Z,94702.09
2022-11-28T18:46:16.471Z,94697.59
2022-11-28T18:48:45.206Z,94700.81
2022-11-28T18:51:28.782Z,94694.22
2022-11-28T18:53:57.366Z,94699.06
2022-11-28T18:56:25.607Z,94698.16
2022-11-28T18:58:53.897Z,94699.75
2022-11-28T19:01:30.630Z,94702.31
2022-11-28T19:04:00.167Z,94696.03
2022-11-28T19:06:27.688Z,94693.25
2022-11-28T19:08:57.806Z,94702.41
2022-11-28T19:11:24.935Z,94708.47
2022-11-28T19:13:53.331Z,94710.19
2022-11-28T19:16:21.269Z,94706.00
2022-11-28T19:18:48.254Z,94705.09
2022-11-28T19:21:26.902Z,94707.41
2022-11-28T19:23:55.152Z,94710.06
2022-11-28T19:26:24.590Z,94704.53
2022-11-28T19:28:51.254Z,94702.19
2022-11-28T19:31:23.864Z,94702.31
2022-11-28T19:34:04.408Z,94705.91
2022-11-28T19:36:37.605Z,94706.97
2022-11-28T19:39:05.182Z,94700.34
2022-11-28T19:41:32.399Z,94700.94
2022-11-28T19:43:59.513Z,94703.50
2022-11-28T19:46:34.980Z,94706.75
2022-11-28T19:49:04.353Z,94706.06
2022-11-28T19:51:31.490Z,94703.03
2022-11-28T19:54:03.144Z,94703.94
2022-11-28T19:56:32.417Z,94705.47
2022-11-28T19:58:59.614Z,94702.09
2022-11-28T20:01:28.161Z,94701.53
2022-11-28T20:03:55.444Z,94702.47
2022-11-28T20:06:24.510Z,94709.31
2022-11-28T20:08:53.228Z,94709.88
2022-11-28T20:11:24.756Z,94714.84
2022-11-28T20:14:00.303Z,94711.13
2022-11-28T20:16:30.286Z,94714.25
2022-11-28T20:19:00.416Z,94710.09
2022-11-28T20:21:28.467Z,94714.25
2022-11-28T20:23:58.263Z,94718.69
2022-11-28T20:26:26.851Z,94713.34
2022-11-28T20:28:56.107Z,94714.16
2022-11-28T20:31:33.778Z,94724.13
2022-11-28T20:34:01.763Z,94727.50
2022-11-28T20:36:30.651Z,94722.28
2022-11-28T20:38:58.755Z,94722.63
2022-11-28T20:41:26.733Z,94725.66
2022-11-28T20:43:53.643Z,94721.31
2022-11-28T20:46:30.312Z,94719.72
2022-11-28T20:48:59.548Z,94721.81
2022-11-28T20:51:28.166Z,94728.53
2022-11-28T20:53:56.271Z,94734.91
2022-11-28T20:56:25.334Z,94736.66
2022-11-28T20:58:52.376Z,94742.00
2022-11-28T21:01:22.050Z,94742.69
2022-11-28T21:03:49.439Z,94742.09
2022-11-28T21:06:16.242Z,94745.22
2022-11-28T21:08:43.326Z,94740.66
2022-11-28T21:11:30.909Z,94743.44
2022-11-28T21:14:02.226Z,94735.66
2022-11-28T21:16:31.681Z,94743.78
2022-11-28T21:19:07.612Z,94740.75
2022-11-28T21:21:35.611Z,94747.63
2022-11-28T21:24:09.590Z,94745.41
2022-11-28T21:26:41.418Z,94750.06
2022-11-28T21:29:12.464Z,94746.34
2022-11-28T21:31:44.277Z,94747.94
2022-11-28T21:34:16.702Z,94749.25
2022-11-28T21:36:43.727Z,94746.69
2022-11-28T21:39:13.594Z,94747.75
2022-11-28T21:41:40.516Z,94748.56
2022-11-28T21:44:07.772Z,94748.31
2022-11-28T21:46:34.626Z,94756.00
2022-11-28T21:49:01.809Z,94750.75
2022-11-28T21:51:28.760Z,94753.31
2022-11-28T21:53:57.615Z,94749.13
2022-11-28T21:56:25.336Z,94743.91
2022-11-28T21:58:53.385Z,94749.72
2022-11-28T22:01:23.046Z,94742.72
2022-11-28T22:03:49.942Z,94744.09
2022-11-28T22:06:25.696Z,94741.91
2022-11-28T22:08:54.280Z,94744.59
2022-11-28T22:11:22.778Z,94744.94
2022-11-28T22:13:50.328Z,94744.81
2022-11-28T22:16:20.000Z,94744.00
2022-11-28T22:18:49.019Z,94748.19
2022-11-28T22:24:06.181Z,94747.50
2022-11-28T22:26:33.691Z,94743.78
2022-11-28T22:29:01.027Z,94749.72
2022-11-28T22:31:27.978Z,94748.31
2022-11-28T22:33:54.851Z,94750.63
2022-11-28T22:36:23.143Z,94748.91
2022-11-28T22:38:55.012Z,94746.47
2022-11-28T22:41:28.369Z,94749.38
2022-11-28T22:44:00.344Z,94746.69
2022-11-28T22:46:28.033Z,94746.56
2022-11-28T22:48:54.790Z,94749.13
2022-11-28T22:51:24.368Z,94755.19
2022-11-28T22:53:59.444Z,94743.31
2022-11-28T22:56:28.018Z,94753.53
2022-11-28T22:58:55.111Z,94742.75
2022-11-28T23:01:29.605Z,94741.00
2022-11-28T23:03:57.018Z,94746.94
2022-11-28T23:06:26.439Z,94742.41
2022-11-28T23:08:55.718Z,94743.44
2022-11-28T23:11:26.603Z,94739.84
2022-11-28T23:13:53.757Z,94735.66
2022-11-28T23:16:25.098Z,94736.59
2022-11-28T23:18:54.211Z,94741.69
2022-11-28T23:21:23.145Z,94741.56
2022-11-28T23:23:50.172Z,94729.38
2022-11-28T23:26:19.674Z,94731.81
2022-11-28T23:28:47.341Z,94733.19
2022-11-28T23:31:17.513Z,94736.56
2022-11-28T23:33:44.813Z,94736.56
2022-11-28T23:36:22.526Z,94741.91
2022-11-28T23:38:51.501Z,94739.38
2022-11-28T23:41:18.975Z,94740.84
2022-11-28T23:43:46.036Z,94745.97
2022-11-28T23:46:14.426Z,94745.25
2022-11-28T23:48:41.230Z,94742.84
2022-11-28T23:51:08.414Z,94743.53
2022-11-28T23:53:35.392Z,94738.69
2022-11-28T23:56:07.409Z,94740.97
2022-11-28T23:58:34.616Z,94738.06
